Time;durP1;ratioP1;P1;durP2;ratioP2;P2;SDS_P1;SDS_P2;PMS_P1;PMS_P2;Temp;Humidity;BMP_temperature;BMP_pressure;BME280_temperature;BME280_humidity;BME280_pressure;Samples;Min_cycle;Max_cycle;Signal;HPM_P1;HPM_P2
2021/06/03 00:00:15;;;;;;;6.28;5.50;;;;;;;;;;5115744;28;20028;-83
2021/06/03 00:02:42;;;;;;;5.80;5.20;;;;;;;;;;5097256;28;20418;-81
2021/06/03 00:05:09;;;;;;;6.43;5.80;;;;;;;;;;5115739;28;20051;-78
2021/06/03 00:07:35;;;;;;;5.93;5.30;;;;;;;;;;5115554;28;20027;-79
2021/06/03 00:10:01;;;;;;;6.72;6.05;;;;;;;;;;5115695;28;20032;-85
2021/06/03 00:12:27;;;;;;;6.68;5.97;;;;;;;;;;5115427;28;20028;-81
2021/06/03 00:14:54;;;;;;;6.72;5.95;;;;;;;;;;5097222;28;20020;-78
2021/06/03 00:17:20;;;;;;;9.07;5.82;;;;;;;;;;5115704;28;20020;-78
2021/06/03 00:19:46;;;;;;;6.65;6.05;;;;;;;;;;5115288;28;20058;-82
2021/06/03 00:22:12;;;;;;;8.68;6.18;;;;;;;;;;5115529;28;20412;-81
2021/06/03 00:24:38;;;;;;;6.03;5.32;;;;;;;;;;5115060;28;20027;-82
2021/06/03 00:27:04;;;;;;;6.68;5.88;;;;;;;;;;5115246;28;20378;-80
2021/06/03 00:29:30;;;;;;;6.22;5.68;;;;;;;;;;5114994;28;20132;-81
2021/06/03 00:31:56;;;;;;;6.55;5.90;;;;;;;;;;5115019;28;20074;-86
2021/06/03 00:34:23;;;;;;;6.68;5.85;;;;;;;;;;5115183;28;20494;-81
2021/06/03 00:36:49;;;;;;;6.50;5.55;;;;;;;;;;5114588;28;20052;-82
2021/06/03 00:39:15;;;;;;;5.75;5.15;;;;;;;;;;5115058;28;20023;-83
2021/06/03 00:41:41;;;;;;;7.07;6.35;;;;;;;;;;5115039;28;20094;-77
2021/06/03 00:44:07;;;;;;;7.03;5.70;;;;;;;;;;5115032;28;20023;-85
2021/06/03 00:46:33;;;;;;;6.22;5.60;;;;;;;;;;5114962;28;20023;-83
2021/06/03 00:48:59;;;;;;;5.72;5.20;;;;;;;;;;5114750;28;20028;-81
2021/06/03 00:51:26;;;;;;;6.07;4.90;;;;;;;;;;5114765;28;20047;-79
2021/06/03 00:53:52;;;;;;;6.22;5.63;;;;;;;;;;5114874;28;20069;-83
2021/06/03 00:56:18;;;;;;;8.70;5.50;;;;;;;;;;5115040;28;20038;-83
2021/06/03 00:58:44;;;;;;;5.43;4.93;;;;;;;;;;5114678;28;20457;-80
2021/06/03 01:01:10;;;;;;;6.88;5.18;;;;;;;;;;5114756;28;20092;-84
2021/06/03 01:03:37;;;;;;;7.22;5.07;;;;;;;;;;5114675;28;20058;-86
2021/06/03 01:06:05;;;;;;;5.85;5.25;;;;;;;;;;5114349;28;20034;-80
2021/06/03 01:08:52;;;;;;;5.40;4.90;;;;;;;;;;5096242;28;20032;-84
2021/06/03 01:11:37;;;;;;;5.65;5.15;;;;;;;;;;5096810;28;20386;-78
2021/06/03 01:14:03;;;;;;;;;;;;;;;;;;5114923;28;20038;-77
2021/06/03 01:16:29;;;;;;;5.70;5.13;;;;;;;;;;5113522;28;19904;-80
2021/06/03 01:18:56;;;;;;;6.38;5.78;;;;;;;;;;5114142;28;20031;-79
2021/06/03 01:21:27;;;;;;;5.88;5.38;;;;;;;;;;5114027;28;20032;-83
2021/06/03 01:23:57;;;;;;;6.22;5.55;;;;;;;;;;5113987;28;20019;-78
2021/06/03 01:26:24;;;;;;;5.90;5.40;;;;;;;;;;5113728;28;20054;-83
2021/06/03 01:28:50;;;;;;;6.20;5.70;;;;;;;;;;5113920;28;20032;-77
2021/06/03 01:31:16;;;;;;;5.93;5.30;;;;;;;;;;5113861;28;20034;-83
2021/06/03 01:33:42;;;;;;;6.22;5.72;;;;;;;;;;5095746;28;20024;-82
2021/06/03 01:36:10;;;;;;;5.63;5.10;;;;;;;;;;5113782;28;20095;-83
2021/06/03 01:38:37;;;;;;;6.40;5.80;;;;;;;;;;5113499;28;20027;-87
2021/06/03 01:41:04;;;;;;;8.40;5.80;;;;;;;;;;5113835;28;20053;-79
2021/06/03 01:43:32;;;;;;;6.40;5.13;;;;;;;;;;5113497;28;20535;-80
2021/06/03 01:45:59;;;;;;;5.00;4.50;;;;;;;;;;5113832;28;20045;-82
2021/06/03 01:48:25;;;;;;;5.50;5.00;;;;;;;;;;5113338;28;20039;-75
2021/06/03 01:50:52;;;;;;;6.00;5.40;;;;;;;;;;5113655;28;20027;-80
2021/06/03 01:53:21;;;;;;;6.15;5.63;;;;;;;;;;5113304;28;20039;-79
2021/06/03 01:55:47;;;;;;;6.88;5.22;;;;;;;;;;5113476;28;20110;-86
2021/06/03 01:58:13;;;;;;;6.30;5.70;;;;;;;;;;5113323;28;20031;-80
2021/06/03 02:00:40;;;;;;;5.97;4.90;;;;;;;;;;5113326;28;20031;-82
2021/06/03 02:03:06;;;;;;;6.40;5.43;;;;;;;;;;5113418;28;20031;-78
2021/06/03 02:05:33;;;;;;;5.57;5.07;;;;;;;;;;5113059;28;20020;-80
2021/06/03 02:07:59;;;;;;;6.50;5.60;;;;;;;;;;5113280;28;20406;-79
2021/06/03 02:10:25;;;;;;;6.75;5.63;;;;;;;;;;5113042;28;20055;-82
2021/06/03 02:13:12;;;;;;;6.55;5.53;;;;;;;;;;5113036;28;20081;-82
2021/06/03 02:15:47;;;;;;;6.63;5.20;;;;;;;;;;5113015;28;20032;-83
2021/06/03 02:18:14;;;;;;;6.30;5.70;;;;;;;;;;5094581;28;20202;-82
2021/06/03 02:20:42;;;;;;;5.78;5.28;;;;;;;;;;5094618;28;20038;-82
2021/06/03 02:23:10;;;;;;;6.63;5.75;;;;;;;;;;5112835;28;20019;-82
2021/06/03 02:25:36;;;;;;;6.05;5.45;;;;;;;;;;5113021;28;20080;-81
2021/06/03 02:28:04;;;;;;;5.75;5.22;;;;;;;;;;5112636;28;20387;-80
2021/06/03 02:30:31;;;;;;;7.05;5.57;;;;;;;;;;5113036;28;20035;-81
2021/06/03 02:32:59;;;;;;;6.20;5.60;;;;;;;;;;5112593;28;20081;-80
2021/06/03 02:35:25;;;;;;;6.80;6.20;;;;;;;;;;5112916;28;20958;-87
2021/06/03 02:37:51;;;;;;;8.90;5.32;;;;;;;;;;5112829;28;20035;-84
2021/06/03 02:40:25;;;;;;;5.70;5.20;;;;;;;;;;5112824;28;20051;-82
2021/06/03 02:42:52;;;;;;;6.10;5.50;;;;;;;;;;5112557;28;20031;-80
2021/06/03 02:45:20;;;;;;;6.78;6.18;;;;;;;;;;5112777;28;20034;-81
2021/06/03 02:47:47;;;;;;;8.02;5.40;;;;;;;;;;5094350;28;20086;-80
2021/06/03 02:50:14;;;;;;;6.15;5.20;;;;;;;;;;5112566;28;20047;-82
2021/06/03 02:52:41;;;;;;;5.60;5.05;;;;;;;;;;5094383;28;20028;-81
2021/06/03 02:55:08;;;;;;;6.20;5.70;;;;;;;;;;5112517;28;20042;-85
2021/06/03 02:57:34;;;;;;;6.50;5.82;;;;;;;;;;5112933;28;20063;-80
2021/06/03 03:00:00;;;;;;;5.82;5.22;;;;;;;;;;5112469;28;20120;-79
2021/06/03 03:02:27;;;;;;;5.93;5.32;;;;;;;;;;5112764;28;20433;-79
2021/06/03 03:04:53;;;;;;;6.93;5.70;;;;;;;;;;5112501;28;20382;-80
2021/06/03 03:07:19;;;;;;;6.03;5.40;;;;;;;;;;5112757;28;20035;-80
2021/06/03 03:09:45;;;;;;;6.22;5.63;;;;;;;;;;5112815;28;20081;-77
2021/06/03 03:12:11;;;;;;;7.57;5.65;;;;;;;;;;5112532;28;20463;-81
2021/06/03 03:14:38;;;;;;;6.95;5.60;;;;;;;;;;5112688;28;20053;-86
2021/06/03 03:17:04;;;;;;;6.70;6.10;;;;;;;;;;5112339;28;20038;-84
2021/06/03 03:19:31;;;;;;;6.47;5.88;;;;;;;;;;5112508;28;20039;-82
2021/06/03 03:21:57;;;;;;;6.93;6.28;;;;;;;;;;5112272;28;20522;-81
2021/06/03 03:24:23;;;;;;;8.40;6.50;;;;;;;;;;5112496;28;20026;-81
2021/06/03 03:26:50;;;;;;;7.68;6.95;;;;;;;;;;5112324;28;20356;-76
2021/06/03 03:29:16;;;;;;;7.13;5.80;;;;;;;;;;5112382;28;20051;-82
2021/06/03 03:31:42;;;;;;;9.18;6.68;;;;;;;;;;5112411;28;20020;-81
2021/06/03 03:34:08;;;;;;;7.28;6.57;;;;;;;;;;5114587;28;20093;-82
2021/06/03 03:36:34;;;;;;;6.72;6.13;;;;;;;;;;5115990;28;20051;-80
2021/06/03 03:39:00;;;;;;;7.53;6.82;;;;;;;;;;5116065;28;20524;-76
2021/06/03 03:41:26;;;;;;;7.20;6.43;;;;;;;;;;5115849;28;20031;-84
2021/06/03 03:43:53;;;;;;;8.43;6.47;;;;;;;;;;5116014;28;20027;-76
2021/06/03 03:46:19;;;;;;;9.07;6.30;;;;;;;;;;5097742;28;20028;-79
2021/06/03 03:48:45;;;;;;;7.68;6.10;;;;;;;;;;5115719;28;20470;-76
2021/06/03 03:51:13;;;;;;;8.45;6.38;;;;;;;;;;5115941;28;20106;-84
2021/06/03 03:53:40;;;;;;;8.25;6.10;;;;;;;;;;5115867;28;20031;-77
2021/06/03 03:56:07;;;;;;;8.23;5.72;;;;;;;;;;5115739;28;20035;-82
2021/06/03 03:58:36;;;;;;;7.68;6.05;;;;;;;;;;5115852;28;20072;-84
2021/06/03 04:01:03;;;;;;;8.55;6.68;;;;;;;;;;5115566;28;20122;-78
2021/06/03 04:03:29;;;;;;;8.07;6.55;;;;;;;;;;5115717;28;20088;-76
2021/06/03 04:05:55;;;;;;;7.10;6.22;;;;;;;;;;5097625;28;20023;-83
2021/06/03 04:08:21;;;;;;;7.97;6.38;;;;;;;;;;5115251;28;20035;-87
2021/06/03 04:10:48;;;;;;;9.43;5.60;;;;;;;;;;5115459;28;20027;-81
2021/06/03 04:13:14;;;;;;;6.90;6.22;;;;;;;;;;5115120;28;20031;-87
2021/06/03 04:15:40;;;;;;;7.15;6.30;;;;;;;;;;5115219;28;20470;-78
2021/06/03 04:18:07;;;;;;;6.78;6.18;;;;;;;;;;5115165;28;20024;-85
2021/06/03 04:20:33;;;;;;;7.13;6.35;;;;;;;;;;5115050;28;20036;-84
2021/06/03 04:23:00;;;;;;;6.93;6.18;;;;;;;;;;5115206;28;20052;-88
2021/06/03 04:25:26;;;;;;;12.75;7.78;;;;;;;;;;5096720;28;20467;-78
2021/06/03 04:27:53;;;;;;;6.32;5.72;;;;;;;;;;5114673;28;20130;-76
2021/06/03 04:30:20;;;;;;;6.72;6.13;;;;;;;;;;5114782;28;20102;-79
2021/06/03 04:32:47;;;;;;;6.57;5.88;;;;;;;;;;5096813;28;20024;-83
2021/06/03 04:35:14;;;;;;;6.72;6.10;;;;;;;;;;5114706;28;20056;-77
2021/06/03 04:37:40;;;;;;;6.70;6.07;;;;;;;;;;5084187;28;20050;-81
2021/06/03 04:40:06;;;;;;;6.82;6.18;;;;;;;;;;5082437;28;20498;-78
2021/06/03 04:42:33;;;;;;;7.40;6.75;;;;;;;;;;5093984;28;20039;-81
2021/06/03 04:45:02;;;;;;;6.22;5.57;;;;;;;;;;5093877;28;20024;-80
2021/06/03 04:47:28;;;;;;;9.82;6.40;;;;;;;;;;5094043;28;20032;-79
2021/06/03 04:49:54;;;;;;;6.30;5.70;;;;;;;;;;5094132;28;20056;-75
2021/06/03 04:55:05;;;;;;;;;;;;;;;;;;5094194;28;20047;-78
2021/06/03 04:57:32;;;;;;;7.22;5.75;;;;;;;;;;5093958;28;19904;-79
2021/06/03 04:59:58;;;;;;;8.68;6.80;;;;;;;;;;5093749;28;20024;-79
2021/06/03 05:02:25;;;;;;;7.60;6.38;;;;;;;;;;5086030;28;20024;-78
2021/06/03 05:04:51;;;;;;;6.43;5.80;;;;;;;;;;5077169;28;20043;-78
2021/06/03 05:07:17;;;;;;;9.23;5.40;;;;;;;;;;5076593;28;20034;-78
2021/06/03 05:09:44;;;;;;;5.80;5.30;;;;;;;;;;5078817;28;20543;-78
2021/06/03 05:12:10;;;;;;;5.55;5.05;;;;;;;;;;5081951;28;20028;-78
2021/06/03 05:14:36;;;;;;;6.07;5.10;;;;;;;;;;5076086;28;20464;-78
2021/06/03 05:17:03;;;;;;;5.53;4.93;;;;;;;;;;5085701;28;20028;-79
2021/06/03 05:19:29;;;;;;;6.20;4.88;;;;;;;;;;5074466;28;20050;-82
2021/06/03 05:21:56;;;;;;;6.03;5.20;;;;;;;;;;5084318;28;20029;-78
2021/06/03 05:24:22;;;;;;;5.97;5.32;;;;;;;;;;5086573;28;20103;-78
2021/06/03 05:26:48;;;;;;;5.85;4.75;;;;;;;;;;5074896;28;20063;-77
2021/06/03 05:29:15;;;;;;;6.40;4.50;;;;;;;;;;5090980;28;20035;-77
2021/06/03 05:31:45;;;;;;;5.95;4.57;;;;;;;;;;5091138;28;20160;-78
2021/06/03 05:34:12;;;;;;;6.13;5.00;;;;;;;;;;5090137;28;20036;-78
2021/06/03 05:36:38;;;;;;;5.38;4.80;;;;;;;;;;5110416;28;20092;-79
2021/06/03 05:39:05;;;;;;;6.10;5.35;;;;;;;;;;5112623;28;20024;-78
2021/06/03 05:41:32;;;;;;;7.10;4.53;;;;;;;;;;5113749;28;20035;-77
2021/06/03 05:43:59;;;;;;;6.90;4.82;;;;;;;;;;5113398;28;20082;-80
2021/06/03 05:46:25;;;;;;;5.07;4.22;;;;;;;;;;5113025;28;20024;-78
2021/06/03 05:48:51;;;;;;;5.80;4.25;;;;;;;;;;5113451;28;20032;-77
2021/06/03 05:51:17;;;;;;;6.00;4.68;;;;;;;;;;5113057;28;20027;-79
2021/06/03 05:53:44;;;;;;;5.53;5.03;;;;;;;;;;5094332;28;20028;-79
2021/06/03 05:56:10;;;;;;;7.22;4.03;;;;;;;;;;5111897;28;20035;-80
2021/06/03 05:58:36;;;;;;;5.38;4.55;;;;;;;;;;5113311;28;20024;-78
2021/06/03 06:01:02;;;;;;;5.10;4.45;;;;;;;;;;5107970;28;20032;-77
2021/06/03 06:03:42;;;;;;;4.60;4.20;;;;;;;;;;5097363;28;20040;-76
2021/06/03 06:06:23;;;;;;;4.07;3.47;;;;;;;;;;5092560;28;20031;-80
2021/06/03 06:08:51;;;;;;;4.32;3.88;;;;;;;;;;5091928;28;20475;-78
2021/06/03 06:11:17;;;;;;;3.65;3.20;;;;;;;;;;5102505;28;20039;-77
2021/06/03 06:13:44;;;;;;;4.25;3.80;;;;;;;;;;5099619;28;20052;-78
2021/06/03 06:16:10;;;;;;;5.22;3.45;;;;;;;;;;5092166;28;20471;-77
2021/06/03 06:18:37;;;;;;;4.63;3.35;;;;;;;;;;5092417;28;20069;-78
2021/06/03 06:21:03;;;;;;;3.95;3.55;;;;;;;;;;5095826;28;20032;-76
2021/06/03 06:23:29;;;;;;;4.32;3.92;;;;;;;;;;5112229;28;20027;-80
2021/06/03 06:25:56;;;;;;;3.50;3.03;;;;;;;;;;5111802;28;20028;-80
2021/06/03 06:28:22;;;;;;;4.68;3.33;;;;;;;;;;5092180;28;20071;-78
2021/06/03 06:30:48;;;;;;;5.35;3.40;;;;;;;;;;5092643;28;20028;-78
2021/06/03 06:33:15;;;;;;;5.05;3.80;;;;;;;;;;5092183;28;20016;-80
2021/06/03 06:35:44;;;;;;;6.13;3.75;;;;;;;;;;5092244;28;20051;-76
2021/06/03 06:38:10;;;;;;;5.15;4.63;;;;;;;;;;5091826;28;20024;-79
2021/06/03 06:40:36;;;;;;;6.65;5.38;;;;;;;;;;5092325;28;20031;-80
2021/06/03 06:43:03;;;;;;;8.52;6.20;;;;;;;;;;5091830;28;20035;-78
2021/06/03 06:45:30;;;;;;;5.95;3.63;;;;;;;;;;5091630;28;20035;-78
2021/06/03 06:47:56;;;;;;;4.53;3.72;;;;;;;;;;5073847;28;20036;-78
2021/06/03 06:50:23;;;;;;;7.15;4.15;;;;;;;;;;5091881;28;20032;-78
2021/06/03 06:52:50;;;;;;;3.55;3.25;;;;;;;;;;5091761;28;20024;-80
2021/06/03 06:55:16;;;;;;;8.23;4.63;;;;;;;;;;5092043;28;20055;-81
2021/06/03 06:57:42;;;;;;;4.47;3.38;;;;;;;;;;5091900;28;20028;-79
2021/06/03 07:00:10;;;;;;;5.40;3.33;;;;;;;;;;5091719;28;20035;-78
2021/06/03 07:02:36;;;;;;;4.55;3.67;;;;;;;;;;5091849;28;20849;-79
2021/06/03 07:05:04;;;;;;;3.70;3.05;;;;;;;;;;5091917;28;20032;-80
2021/06/03 07:07:30;;;;;;;4.07;2.95;;;;;;;;;;5091524;28;20428;-80
2021/06/03 07:09:56;;;;;;;3.00;2.70;;;;;;;;;;5095520;28;20028;-80
2021/06/03 07:12:22;;;;;;;5.97;3.80;;;;;;;;;;5095979;28;20066;-79
2021/06/03 07:14:49;;;;;;;4.63;2.55;;;;;;;;;;5095266;28;20057;-77
2021/06/03 07:17:16;;;;;;;4.40;2.20;;;;;;;;;;5110237;28;20427;-76
2021/06/03 07:19:43;;;;;;;2.55;2.17;;;;;;;;;;5115971;28;20121;-77
2021/06/03 07:22:09;;;;;;;5.57;2.60;;;;;;;;;;5115851;28;20028;-76
2021/06/03 07:24:36;;;;;;;4.03;2.55;;;;;;;;;;5097149;28;20551;-78
2021/06/03 07:27:02;;;;;;;3.42;2.33;;;;;;;;;;5097060;28;20061;-76
2021/06/03 07:29:28;;;;;;;3.40;2.83;;;;;;;;;;5115403;28;20031;-78
2021/06/03 07:31:55;;;;;;;3.60;2.45;;;;;;;;;;5115923;28;20532;-80
2021/06/03 07:34:21;;;;;;;4.05;2.30;;;;;;;;;;5109769;28;20024;-77
2021/06/03 07:36:47;;;;;;;4.18;2.03;;;;;;;;;;5110970;28;20063;-78
2021/06/03 07:39:13;;;;;;;6.35;2.65;;;;;;;;;;5095471;28;20445;-77
2021/06/03 07:41:40;;;;;;;3.60;2.65;;;;;;;;;;5100490;28;20038;-77
2021/06/03 07:44:06;;;;;;;4.90;2.40;;;;;;;;;;5095216;28;20024;-76
2021/06/03 07:46:32;;;;;;;3.58;2.47;;;;;;;;;;5105721;28;20058;-79
2021/06/03 07:48:59;;;;;;;8.07;2.92;;;;;;;;;;5102687;28;20028;-80
2021/06/03 07:51:26;;;;;;;4.95;2.78;;;;;;;;;;5098088;28;20069;-81
2021/06/03 07:53:52;;;;;;;4.03;2.60;;;;;;;;;;5102721;28;20063;-83
2021/06/03 07:56:18;;;;;;;6.03;2.70;;;;;;;;;;5100806;28;20483;-84
2021/06/03 07:58:44;;;;;;;3.72;2.40;;;;;;;;;;5114083;28;20374;-77
2021/06/03 08:01:10;;;;;;;3.25;2.65;;;;;;;;;;5096678;28;20024;-79
2021/06/03 08:03:36;;;;;;;5.15;2.63;;;;;;;;;;5094506;28;20032;-79
2021/06/03 08:06:03;;;;;;;3.83;2.60;;;;;;;;;;5094993;28;20099;-85
2021/06/03 08:08:35;;;;;;;4.28;3.03;;;;;;;;;;5101725;28;20093;-78
2021/06/03 08:11:02;;;;;;;2.90;2.15;;;;;;;;;;5105143;27;20024;-75
2021/06/03 08:13:28;;;;;;;7.55;2.95;;;;;;;;;;5106222;28;20024;-81
2021/06/03 08:15:54;;;;;;;4.53;2.40;;;;;;;;;;5099083;28;20028;-78
2021/06/03 08:18:20;;;;;;;4.25;2.63;;;;;;;;;;5114625;28;20549;-77
2021/06/03 08:20:48;;;;;;;3.67;2.67;;;;;;;;;;5107790;27;20035;-76
2021/06/03 08:23:16;;;;;;;7.03;2.85;;;;;;;;;;5115007;28;20031;-78
2021/06/03 08:25:43;;;;;;;3.40;2.20;;;;;;;;;;5114616;28;20023;-77
2021/06/03 08:28:09;;;;;;;3.90;2.40;;;;;;;;;;5107785;28;20483;-78
2021/06/03 08:30:36;;;;;;;4.78;2.38;;;;;;;;;;5097650;28;20056;-79
2021/06/03 08:33:03;;;;;;;4.38;2.53;;;;;;;;;;5093697;28;20043;-80
2021/06/03 08:35:29;;;;;;;2.53;2.10;;;;;;;;;;5072836;28;20052;-85
2021/06/03 08:37:57;;;;;;;3.72;2.58;;;;;;;;;;5073300;28;20017;-79
2021/06/03 08:40:27;;;;;;;2.92;2.55;;;;;;;;;;5078575;28;20039;-81
2021/06/03 08:42:57;;;;;;;5.78;2.65;;;;;;;;;;5074623;28;20125;-77
2021/06/03 08:45:24;;;;;;;2.80;2.47;;;;;;;;;;5073797;28;20086;-79
2021/06/03 08:47:51;;;;;;;4.05;2.70;;;;;;;;;;5073595;28;20384;-80
2021/06/03 08:50:17;;;;;;;3.50;2.50;;;;;;;;;;5073620;28;20051;-76
2021/06/03 08:52:44;;;;;;;10.20;3.63;;;;;;;;;;5073259;28;20028;-80
2021/06/03 08:56:14;;;;;;;4.45;2.83;;;;;;;;;;5073504;28;20479;-79
2021/06/03 08:57:57;;;;;;;2.33;2.13;;;;;;;;;;5073406;28;20028;-78
2021/06/03 09:00:23;;;;;;;5.25;2.83;;;;;;;;;;5073347;28;20028;-78
2021/06/03 09:02:49;;;;;;;4.78;2.50;;;;;;;;;;5089878;28;20195;-77
2021/06/03 09:05:15;;;;;;;6.22;3.33;;;;;;;;;;5089884;28;20479;-79
2021/06/03 09:07:43;;;;;;;2.80;2.10;;;;;;;;;;5093072;28;20043;-79
2021/06/03 09:10:27;;;;;;;5.15;2.85;;;;;;;;;;5090764;28;20035;-77
2021/06/03 09:13:13;;;;;;;2.88;2.53;;;;;;;;;;5089164;28;20024;-76
2021/06/03 09:15:42;;;;;;;6.18;2.50;;;;;;;;;;5090729;28;20023;-79
2021/06/03 09:18:09;;;;;;;4.13;2.72;;;;;;;;;;5093273;28;20474;-83
2021/06/03 09:20:39;;;;;;;4.85;2.50;;;;;;;;;;5075060;28;20028;-81
2021/06/03 09:23:06;;;;;;;3.67;2.58;;;;;;;;;;5080020;28;20379;-81
2021/06/03 09:25:40;;;;;;;4.30;2.88;;;;;;;;;;5090021;28;20442;-78
2021/06/03 09:28:29;;;;;;;4.65;2.80;;;;;;;;;;5087013;28;20040;-79
2021/06/03 09:31:01;;;;;;;4.38;3.03;;;;;;;;;;5078771;28;20044;-81
2021/06/03 09:33:44;;;;;;;3.58;2.67;;;;;;;;;;5090053;28;20020;-79
2021/06/03 09:36:13;;;;;;;3.78;2.72;;;;;;;;;;5102425;28;20486;-77
2021/06/03 09:38:51;;;;;;;3.20;2.90;;;;;;;;;;5112740;28;20031;-78
2021/06/03 09:41:18;;;;;;;5.88;2.63;;;;;;;;;;5110729;28;20019;-78
2021/06/03 09:43:45;;;;;;;3.33;2.70;;;;;;;;;;5109604;28;20028;-81
2021/06/03 09:46:13;;;;;;;5.97;3.00;;;;;;;;;;5109145;28;20020;-82
2021/06/03 09:48:44;;;;;;;4.78;2.90;;;;;;;;;;5092651;28;20032;-78
2021/06/03 09:51:28;;;;;;;4.53;3.08;;;;;;;;;;5101392;28;20024;-80
2021/06/03 09:53:54;;;;;;;;;;;;;;;;;;5113972;28;20024;-77
2021/06/03 09:56:23;;;;;;;3.47;2.90;;;;;;;;;;5113495;28;19919;-77
2021/06/03 09:58:49;;;;;;;4.30;3.10;;;;;;;;;;5113259;28;20359;-78
2021/06/03 10:01:15;;;;;;;3.45;3.00;;;;;;;;;;5113275;28;20023;-79
2021/06/03 10:04:00;;;;;;;4.18;2.55;;;;;;;;;;5109811;28;20031;-76
2021/06/03 10:06:26;;;;;;;4.93;2.97;;;;;;;;;;5088686;28;20035;-76
2021/06/03 10:08:53;;;;;;;5.32;2.85;;;;;;;;;;5109795;28;20035;-78
2021/06/03 10:11:38;;;;;;;3.95;2.83;;;;;;;;;;5093306;28;20023;-77
2021/06/03 10:14:15;;;;;;;3.33;2.55;;;;;;;;;;5111223;28;20049;-78
2021/06/03 10:16:42;;;;;;;3.88;3.08;;;;;;;;;;5111705;28;20028;-78
2021/06/03 10:19:18;;;;;;;3.22;2.55;;;;;;;;;;5111832;28;20020;-77
2021/06/03 10:21:44;;;;;;;4.43;2.70;;;;;;;;;;5110726;28;20031;-79
2021/06/03 10:24:11;;;;;;;3.80;3.10;;;;;;;;;;5106539;28;20059;-82
2021/06/03 10:26:56;;;;;;;8.65;3.40;;;;;;;;;;5114141;27;20030;-77
2021/06/03 10:29:22;;;;;;;5.22;3.45;;;;;;;;;;5133575;27;20077;-78
2021/06/03 10:31:48;;;;;;;4.35;3.10;;;;;;;;;;5133328;27;20023;-76
2021/06/03 10:34:14;;;;;;;4.65;2.70;;;;;;;;;;5133246;27;20023;-81
2021/06/03 10:36:43;;;;;;;6.28;3.47;;;;;;;;;;5121739;28;20028;-78
2021/06/03 10:39:10;;;;;;;6.25;2.72;;;;;;;;;;5094515;28;20374;-76
2021/06/03 10:41:36;;;;;;;5.55;3.30;;;;;;;;;;5112736;28;20482;-78
2021/06/03 10:44:05;;;;;;;4.57;3.15;;;;;;;;;;5112121;28;20028;-78
2021/06/03 10:46:32;;;;;;;3.55;2.88;;;;;;;;;;5105531;28;20024;-79
2021/06/03 10:48:58;;;;;;;3.22;2.60;;;;;;;;;;5095818;28;20546;-79
2021/06/03 10:51:24;;;;;;;3.33;2.80;;;;;;;;;;5096256;28;20103;-80
2021/06/03 10:53:50;;;;;;;4.13;2.85;;;;;;;;;;5096662;28;20028;-79
2021/06/03 10:56:19;;;;;;;3.75;2.83;;;;;;;;;;5096198;28;20024;-77
2021/06/03 10:58:47;;;;;;;4.53;3.00;;;;;;;;;;5096420;28;20406;-77
2021/06/03 11:01:14;;;;;;;6.22;3.50;;;;;;;;;;5095988;28;20051;-78
2021/06/03 11:03:49;;;;;;;4.95;3.22;;;;;;;;;;5096041;28;20459;-79
2021/06/03 11:06:34;;;;;;;5.15;2.65;;;;;;;;;;5095107;28;20371;-78
2021/06/03 11:09:03;;;;;;;6.15;3.30;;;;;;;;;;5095383;28;20425;-79
2021/06/03 11:11:31;;;;;;;5.25;2.78;;;;;;;;;;5095877;28;20028;-81
2021/06/03 11:14:23;;;;;;;4.03;3.03;;;;;;;;;;5099156;28;20059;-79
2021/06/03 11:16:50;;;;;;;6.38;2.70;;;;;;;;;;5098330;28;20059;-78
2021/06/03 11:19:18;;;;;;;2.97;2.30;;;;;;;;;;5115983;28;20085;-81
2021/06/03 11:21:45;;;;;;;3.70;2.35;;;;;;;;;;5116060;28;20073;-77
2021/06/03 11:24:37;;;;;;;4.10;2.90;;;;;;;;;;5116328;28;20030;-79
2021/06/03 11:27:05;;;;;;;4.82;3.03;;;;;;;;;;5087469;28;20032;-80
2021/06/03 11:29:33;;;;;;;3.50;2.88;;;;;;;;;;5096068;28;20115;-78
2021/06/03 11:32:02;;;;;;;4.82;3.70;;;;;;;;;;5095746;28;20494;-77
2021/06/03 11:34:47;;;;;;;3.10;2.60;;;;;;;;;;5095213;28;20028;-76
2021/06/03 11:37:15;;;;;;;3.95;2.88;;;;;;;;;;5095017;28;20048;-78
2021/06/03 11:39:44;;;;;;;3.97;2.22;;;;;;;;;;5095528;28;20460;-80
2021/06/03 11:42:19;;;;;;;3.00;2.03;;;;;;;;;;5105265;27;20076;-78
2021/06/03 11:45:04;;;;;;;4.28;2.90;;;;;;;;;;5136318;27;20088;-78
2021/06/03 11:47:36;;;;;;;4.38;2.55;;;;;;;;;;5135989;27;20031;-78
2021/06/03 11:50:03;;;;;;;6.35;2.63;;;;;;;;;;5136230;27;20024;-76
2021/06/03 11:52:29;;;;;;;3.05;2.38;;;;;;;;;;5135845;27;20054;-76
2021/06/03 11:55:14;;;;;;;4.13;2.33;;;;;;;;;;5134753;27;20462;-76
2021/06/03 11:57:40;;;;;;;3.47;2.65;;;;;;;;;;5135520;27;20073;-79
2021/06/03 12:00:25;;;;;;;5.90;2.53;;;;;;;;;;5106004;27;20547;-77
2021/06/03 12:02:51;;;;;;;3.70;2.85;;;;;;;;;;5096011;28;20442;-77
2021/06/03 12:05:17;;;;;;;4.07;2.70;;;;;;;;;;5076243;28;20376;-80
2021/06/03 12:07:44;;;;;;;5.53;2.50;;;;;;;;;;5094898;28;20028;-78
2021/06/03 12:10:10;;;;;;;3.97;3.33;;;;;;;;;;5097775;27;20027;-77
2021/06/03 12:12:37;;;;;;;3.47;2.67;;;;;;;;;;5111400;28;20108;-78
2021/06/03 12:15:23;;;;;;;4.75;2.50;;;;;;;;;;5100849;28;20028;-77
2021/06/03 12:17:57;;;;;;;5.65;2.50;;;;;;;;;;5101698;28;20127;-76
2021/06/03 12:20:24;;;;;;;2.58;2.38;;;;;;;;;;5098670;27;20028;-80
2021/06/03 12:22:50;;;;;;;6.70;3.10;;;;;;;;;;5115102;28;20102;-79
2021/06/03 12:25:16;;;;;;;3.95;2.50;;;;;;;;;;5114920;28;20031;-80
2021/06/03 12:27:45;;;;;;;2.97;2.60;;;;;;;;;;5099159;28;20052;-80
2021/06/03 12:30:14;;;;;;;3.47;2.25;;;;;;;;;;5094427;28;20028;-76
2021/06/03 12:32:41;;;;;;;3.33;2.50;;;;;;;;;;5094116;28;20039;-77
2021/06/03 12:35:08;;;;;;;3.28;2.55;;;;;;;;;;5094222;28;20048;-80
2021/06/03 12:37:35;;;;;;;8.75;3.03;;;;;;;;;;5094055;28;20056;-79
2021/06/03 12:40:06;;;;;;;4.65;2.83;;;;;;;;;;5104252;28;20483;-79
2021/06/03 12:42:32;;;;;;;3.95;2.17;;;;;;;;;;5092919;28;20099;-78
2021/06/03 12:45:06;;;;;;;2.75;2.42;;;;;;;;;;5103060;27;20119;-80
2021/06/03 12:47:34;;;;;;;;;;;;;;;;;;5107469;28;20031;-79
2021/06/03 12:50:17;;;;;;;4.15;2.53;;;;;;;;;;5111496;28;19908;-78
2021/06/03 12:52:45;;;;;;;5.22;2.83;;;;;;;;;;5110567;28;20024;-78
2021/06/03 12:55:12;;;;;;;3.45;2.20;;;;;;;;;;5105461;28;20398;-81
2021/06/03 12:57:38;;;;;;;5.18;2.42;;;;;;;;;;5094091;28;20439;-79
2021/06/03 13:00:12;;;;;;;2.92;2.00;;;;;;;;;;5109470;28;20027;-79
2021/06/03 13:02:39;;;;;;;5.07;2.75;;;;;;;;;;5107614;28;20027;-76
2021/06/03 13:05:09;;;;;;;4.25;2.42;;;;;;;;;;5114259;28;20068;-78
2021/06/03 13:07:36;;;;;;;2.67;2.35;;;;;;;;;;5108357;28;20089;-79
2021/06/03 13:10:03;;;;;;;2.92;2.00;;;;;;;;;;5107840;27;20027;-79
2021/06/03 13:12:29;;;;;;;4.47;2.22;;;;;;;;;;5114116;28;20043;-78
2021/06/03 13:14:56;;;;;;;2.67;2.40;;;;;;;;;;5098563;28;20107;-77
2021/06/03 13:17:37;;;;;;;7.88;2.55;;;;;;;;;;5093353;28;20016;-77
2021/06/03 13:20:17;;;;;;;3.92;2.15;;;;;;;;;;5102585;28;20533;-80
2021/06/03 13:22:50;;;;;;;2.63;2.20;;;;;;;;;;5093187;28;20038;-76
2021/06/03 13:25:16;;;;;;;2.80;2.60;;;;;;;;;;5093244;28;20083;-77
2021/06/03 13:27:45;;;;;;;2.97;2.40;;;;;;;;;;5096376;28;20521;-79
2021/06/03 13:30:22;;;;;;;4.35;2.70;;;;;;;;;;5093579;28;20111;-78
2021/06/03 13:32:50;;;;;;;7.28;3.20;;;;;;;;;;5093090;28;20507;-79
2021/06/03 13:35:18;;;;;;;2.47;2.08;;;;;;;;;;5093574;28;20040;-75
2021/06/03 13:37:45;;;;;;;6.88;4.25;;;;;;;;;;5093157;28;20028;-80
2021/06/03 13:40:12;;;;;;;2.90;2.70;;;;;;;;;;5092987;28;20035;-80
2021/06/03 13:42:40;;;;;;;3.08;2.67;;;;;;;;;;5093057;28;20032;-80
2021/06/03 13:45:06;;;;;;;3.30;2.50;;;;;;;;;;5075060;28;20028;-78
2021/06/03 13:47:38;;;;;;;7.03;3.40;;;;;;;;;;5092949;28;20107;-79
2021/06/03 13:50:23;;;;;;;2.88;2.45;;;;;;;;;;5093185;28;20028;-77
2021/06/03 13:52:51;;;;;;;3.72;2.40;;;;;;;;;;5093036;28;20028;-77
2021/06/03 13:55:18;;;;;;;4.13;2.33;;;;;;;;;;5093023;28;20034;-80
2021/06/03 13:57:45;;;;;;;4.35;2.58;;;;;;;;;;5093127;28;20027;-79
2021/06/03 14:00:12;;;;;;;4.18;2.40;;;;;;;;;;5092787;28;20020;-80
2021/06/03 14:02:38;;;;;;;4.28;2.40;;;;;;;;;;5092933;28;20059;-79
2021/06/03 14:05:23;;;;;;;4.00;2.90;;;;;;;;;;5093038;28;20024;-78
2021/06/03 14:08:07;;;;;;;5.93;3.10;;;;;;;;;;5092739;28;20039;-77
2021/06/03 14:10:34;;;;;;;3.72;2.78;;;;;;;;;;5092730;28;20032;-82
2021/06/03 14:13:05;;;;;;;4.53;2.63;;;;;;;;;;5074300;28;20115;-79
2021/06/03 14:15:38;;;;;;;3.08;2.08;;;;;;;;;;5092652;28;20031;-76
2021/06/03 14:18:05;;;;;;;2.50;2.30;;;;;;;;;;5074070;28;20036;-78
2021/06/03 14:20:31;;;;;;;4.15;2.55;;;;;;;;;;5092324;28;20098;-81
2021/06/03 14:22:59;;;;;;;5.60;3.25;;;;;;;;;;5092655;28;20035;-82
2021/06/03 14:25:35;;;;;;;3.55;2.08;;;;;;;;;;5092664;28;20103;-78
2021/06/03 14:28:10;;;;;;;5.72;3.58;;;;;;;;;;5092351;28;20058;-80
2021/06/03 14:30:37;;;;;;;9.50;2.85;;;;;;;;;;5092332;28;20020;-77
2021/06/03 14:33:06;;;;;;;4.22;2.35;;;;;;;;;;5092477;28;20077;-76
2021/06/03 14:35:35;;;;;;;3.50;2.58;;;;;;;;;;5073813;28;20032;-78
2021/06/03 14:38:04;;;;;;;4.15;2.20;;;;;;;;;;5092428;28;20028;-77
2021/06/03 14:40:39;;;;;;;3.15;1.95;;;;;;;;;;5092259;28;20115;-86
2021/06/03 14:43:22;;;;;;;3.05;2.00;;;;;;;;;;5092378;28;20455;-80
2021/06/03 14:45:49;;;;;;;5.45;2.58;;;;;;;;;;5092418;28;20028;-78
2021/06/03 14:48:20;;;;;;;3.13;2.35;;;;;;;;;;5092296;28;20115;-78
2021/06/03 14:50:47;;;;;;;5.72;2.20;;;;;;;;;;5092347;28;20047;-77
2021/06/03 14:53:14;;;;;;;4.63;2.13;;;;;;;;;;5092205;28;20034;-81